createdAt,value
2019-04-07T00:00:50.942Z,22.83
2019-04-07T00:01:51.310Z,22.76
2019-04-07T00:02:50.892Z,22.73
2019-04-07T00:03:50.796Z,22.80
2019-04-07T00:04:51.153Z,22.80
2019-04-07T00:05:50.925Z,22.80
2019-04-07T00:06:51.000Z,22.81
2019-04-07T00:07:50.824Z,22.81
2019-04-07T00:08:59.249Z,22.80
2019-04-07T00:09:58.475Z,22.84
2019-04-07T00:10:58.939Z,22.75
2019-04-07T00:11:59.088Z,22.75
2019-04-07T00:12:58.559Z,22.78
2019-04-07T00:13:59.104Z,22.72
2019-04-07T00:14:59.143Z,22.76
2019-04-07T00:15:51.182Z,22.75
2019-04-07T00:16:50.656Z,22.78
2019-04-07T00:17:50.704Z,22.80
2019-04-07T00:18:50.793Z,22.72
2019-04-07T00:19:50.625Z,22.73
2019-04-07T00:20:50.624Z,22.75
2019-04-07T00:21:50.671Z,22.75
2019-04-07T00:22:51.048Z,22.78
2019-04-07T00:23:50.752Z,22.78
2019-04-07T00:24:50.564Z,22.78
2019-04-07T00:25:50.946Z,22.78
2019-04-07T00:26:51.280Z,22.76
2019-04-07T00:27:50.586Z,22.78
2019-04-07T00:28:50.559Z,22.80
2019-04-07T00:29:50.867Z,22.69
2019-04-07T00:30:50.519Z,22.78
2019-04-07T00:31:50.994Z,22.80
2019-04-07T00:32:50.515Z,22.75
2019-04-07T00:33:50.509Z,22.66
2019-04-07T00:34:50.470Z,22.72
2019-04-07T00:35:50.936Z,22.80
2019-04-07T00:36:50.614Z,22.84
2019-04-07T00:37:50.540Z,22.72
2019-04-07T00:38:50.539Z,22.73
2019-04-07T00:39:51.487Z,22.76
2019-04-07T00:40:50.390Z,22.72
2019-04-07T00:41:50.725Z,22.68
2019-04-07T00:42:50.371Z,22.75
2019-04-07T00:43:50.610Z,22.75
2019-04-07T00:44:50.841Z,22.83
2019-04-07T00:45:50.908Z,22.76
2019-04-07T00:46:51.015Z,22.76
2019-04-07T00:47:50.512Z,22.70
2019-04-07T00:48:50.504Z,22.78
2019-04-07T00:49:50.298Z,22.69
2019-04-07T00:50:50.365Z,22.76
2019-04-07T00:51:51.282Z,22.75
2019-04-07T00:52:50.261Z,22.73
2019-04-07T00:53:50.755Z,22.69
2019-04-07T00:54:50.386Z,22.69
2019-04-07T00:55:50.251Z,22.75
2019-04-07T00:56:50.251Z,22.73
2019-04-07T00:57:50.794Z,22.75
2019-04-07T00:58:50.190Z,22.72
2019-04-07T00:59:50.581Z,22.75
2019-04-07T01:00:50.572Z,22.69
2019-04-07T01:01:50.419Z,22.70
2019-04-07T01:02:50.233Z,22.70
2019-04-07T01:03:50.337Z,22.73
2019-04-07T01:04:50.635Z,22.73
2019-04-07T01:05:50.115Z,22.76
2019-04-07T01:06:50.190Z,22.80
2019-04-07T01:07:50.090Z,22.76
2019-04-07T01:08:50.084Z,22.75
2019-04-07T01:09:50.697Z,22.72
2019-04-07T01:10:50.234Z,22.73
2019-04-07T01:11:50.749Z,22.73
2019-04-07T01:12:50.251Z,22.63
2019-04-07T01:13:50.550Z,22.73
2019-04-07T01:14:50.083Z,22.72
2019-04-07T01:15:50.607Z,22.75
2019-04-07T01:16:50.673Z,22.75
2019-04-07T01:17:49.983Z,22.72
2019-04-07T01:18:50.208Z,22.69
2019-04-07T01:19:49.957Z,22.70
2019-04-07T01:20:49.963Z,22.69
2019-04-07T01:21:50.156Z,22.68
2019-04-07T01:22:50.166Z,22.66
2019-04-07T01:23:50.249Z,22.73
2019-04-07T01:24:50.619Z,22.75
2019-04-07T01:25:50.095Z,22.76
2019-04-07T01:26:49.886Z,22.65
2019-04-07T01:27:50.032Z,22.70
2019-04-07T01:28:49.876Z,22.73
2019-04-07T01:29:50.653Z,22.70
2019-04-07T01:30:49.851Z,22.69
2019-04-07T01:31:49.835Z,22.76
2019-04-07T01:32:49.987Z,22.75
2019-04-07T01:33:49.939Z,22.69
2019-04-07T01:34:50.325Z,22.75
2019-04-07T01:35:50.413Z,22.75
2019-04-07T01:36:50.096Z,22.72
2019-04-07T01:37:49.762Z,22.76
2019-04-07T01:38:49.748Z,22.70
2019-04-07T01:39:50.100Z,22.72
2019-04-07T01:40:49.735Z,22.69
2019-04-07T01:41:49.735Z,22.72
2019-04-07T01:42:49.921Z,22.72
2019-04-07T01:43:49.772Z,22.76
2019-04-07T01:44:50.665Z,22.76
2019-04-07T01:45:49.975Z,22.68
2019-04-07T01:46:50.754Z,22.72
2019-04-07T01:47:49.752Z,22.73
2019-04-07T01:48:49.640Z,22.73
2019-04-07T01:49:50.180Z,22.69
2019-04-07T01:50:49.621Z,22.72
2019-04-07T01:51:50.388Z,22.73
2019-04-07T01:52:50.352Z,22.72
2019-04-07T01:53:49.867Z,22.69
2019-04-07T01:54:49.609Z,22.68
2019-04-07T01:55:49.904Z,22.66
2019-04-07T01:56:49.556Z,22.73
2019-04-07T01:57:49.658Z,22.62
2019-04-07T01:58:49.526Z,22.72
2019-04-07T01:59:49.518Z,22.70
2019-04-07T02:00:50.429Z,22.73
2019-04-07T02:01:49.503Z,22.75
2019-04-07T02:02:49.484Z,22.72
2019-04-07T02:03:49.646Z,22.76
2019-04-07T02:04:50.078Z,22.76
2019-04-07T02:05:58.395Z,22.68
2019-04-07T02:06:50.452Z,22.76
2019-04-07T02:07:50.057Z,22.72
2019-04-07T02:08:49.417Z,22.73
2019-04-07T02:09:57.251Z,22.72
2019-04-07T02:10:58.271Z,22.72
2019-04-07T02:11:58.341Z,22.66
2019-04-07T02:12:49.785Z,22.73
2019-04-07T02:13:49.366Z,22.72
2019-04-07T02:14:49.930Z,22.68
2019-04-07T02:15:49.824Z,22.63
2019-04-07T02:16:49.963Z,22.69
2019-04-07T02:17:49.415Z,22.68
2019-04-07T02:18:49.585Z,22.75
2019-04-07T02:19:49.936Z,22.75
2019-04-07T02:20:49.919Z,22.75
2019-04-07T02:21:49.563Z,22.75
2019-04-07T02:22:49.790Z,22.70
2019-04-07T02:23:49.439Z,22.66
2019-04-07T02:24:49.865Z,22.69
2019-04-07T02:25:49.242Z,22.69
2019-04-07T02:26:49.756Z,22.73
2019-04-07T02:27:49.575Z,22.70
2019-04-07T02:28:49.615Z,22.80
2019-04-07T02:29:49.225Z,22.65
2019-04-07T02:30:49.381Z,22.73
2019-04-07T02:31:50.012Z,22.75
2019-04-07T02:32:49.975Z,22.66
2019-04-07T02:33:49.939Z,22.68
2019-04-07T02:34:49.195Z,22.69
2019-04-07T02:35:49.138Z,22.66
2019-04-07T02:36:49.957Z,22.76
2019-04-07T02:37:49.852Z,22.69
2019-04-07T02:38:50.003Z,22.73
2019-04-07T02:39:49.183Z,22.68
2019-04-07T02:40:49.064Z,22.63
2019-04-07T02:41:49.049Z,22.63
2019-04-07T02:42:49.055Z,22.68
2019-04-07T02:43:49.064Z,22.72
2019-04-07T02:44:49.409Z,22.73
2019-04-07T02:45:49.357Z,22.75
2019-04-07T02:46:48.993Z,22.63
2019-04-07T02:47:49.950Z,22.65
2019-04-07T02:48:48.991Z,22.75
2019-04-07T02:49:50.067Z,22.66
2019-04-07T02:50:48.953Z,22.72
2019-04-07T02:51:49.862Z,22.75
2019-04-07T02:52:49.200Z,22.69
2019-04-07T02:53:49.164Z,22.65
2019-04-07T02:54:49.675Z,22.73
2019-04-07T02:55:48.897Z,22.78
2019-04-07T02:56:49.069Z,22.69
2019-04-07T02:57:48.989Z,22.72
2019-04-07T02:58:49.766Z,22.72
2019-04-07T02:59:48.878Z,22.72
2019-04-07T03:00:50.540Z,22.72
2019-04-07T03:01:49.627Z,22.68
2019-04-07T03:02:49.705Z,22.70
2019-04-07T03:03:48.848Z,22.72
2019-04-07T03:04:48.862Z,22.66
2019-04-07T03:05:49.571Z,22.62
2019-04-07T03:06:52.848Z,22.69
2019-04-07T03:07:48.844Z,22.68
2019-04-07T03:08:49.205Z,22.73
2019-04-07T03:09:49.186Z,22.70
2019-04-07T03:10:48.733Z,22.73
2019-04-07T03:11:49.053Z,22.68
2019-04-07T03:12:48.710Z,22.65
2019-04-07T03:13:49.087Z,22.63
2019-04-07T03:14:49.370Z,22.72
2019-04-07T03:15:49.123Z,22.72
2019-04-07T03:16:49.573Z,22.72
2019-04-07T03:17:48.652Z,22.68
2019-04-07T03:18:48.924Z,22.60
2019-04-07T03:19:48.681Z,22.72
2019-04-07T03:20:49.474Z,22.66
2019-04-07T03:21:48.670Z,22.62
2019-04-07T03:22:48.606Z,22.76
2019-04-07T03:23:48.671Z,22.69
2019-04-07T03:24:49.546Z,22.62
2019-04-07T03:25:48.669Z,22.63
2019-04-07T03:26:48.836Z,22.63
2019-04-07T03:27:48.736Z,22.70
2019-04-07T03:28:49.193Z,22.73
2019-04-07T03:29:49.433Z,22.66
2019-04-07T03:30:49.564Z,22.70
2019-04-07T03:31:50.907Z,22.70
2019-04-07T03:32:50.913Z,22.60
2019-04-07T03:33:49.866Z,22.65
2019-04-07T03:34:49.182Z,22.66
2019-04-07T03:35:51.160Z,22.63
2019-04-07T03:37:16.920Z,22.57
2019-04-07T03:37:49.728Z,22.65
2019-04-07T03:38:48.442Z,22.65
2019-04-07T03:39:49.276Z,22.63
2019-04-07T03:40:49.635Z,22.65
2019-04-07T03:41:49.234Z,22.59
2019-04-07T03:42:48.404Z,22.66
2019-04-07T03:43:48.364Z,22.59
2019-04-07T03:44:48.984Z,22.59
2019-04-07T03:45:48.366Z,22.59
2019-04-07T03:46:49.342Z,22.53
2019-04-07T03:47:48.338Z,22.60
2019-04-07T03:48:48.663Z,22.60
2019-04-07T03:49:48.299Z,22.65
2019-04-07T03:50:48.431Z,22.66
2019-04-07T03:51:48.314Z,22.63
2019-04-07T03:52:48.954Z,22.72
2019-04-07T03:53:48.839Z,22.63
2019-04-07T03:54:48.252Z,22.62
2019-04-07T03:55:49.293Z,22.62
2019-04-07T03:56:48.347Z,22.63
2019-04-07T03:57:48.323Z,22.68
2019-04-07T03:58:48.331Z,22.65
2019-04-07T03:59:48.966Z,22.68
2019-04-07T04:00:48.237Z,22.70
2019-04-07T04:01:48.192Z,22.63
2019-04-07T04:02:48.443Z,22.65
2019-04-07T04:03:48.374Z,22.69
2019-04-07T04:04:48.955Z,22.50
2019-04-07T04:05:51.253Z,22.62
2019-04-07T04:06:48.132Z,22.66
2019-04-07T04:07:49.306Z,22.60
2019-04-07T04:08:48.988Z,22.55
2019-04-07T04:09:48.314Z,22.65
2019-04-07T04:10:48.486Z,22.60
2019-04-07T04:11:48.857Z,22.68
2019-04-07T04:12:49.715Z,22.66
2019-04-07T04:13:48.041Z,22.63
2019-04-07T04:14:48.036Z,22.63
2019-04-07T04:15:48.163Z,22.66
2019-04-07T04:16:49.042Z,22.62
2019-04-07T04:17:48.199Z,22.65
2019-04-07T04:18:48.290Z,22.65
2019-04-07T04:19:48.179Z,22.65
2019-04-07T04:20:48.604Z,22.62
2019-04-07T04:21:47.992Z,22.55
2019-04-07T04:22:48.567Z,22.60
2019-04-07T04:23:47.948Z,22.68
2019-04-07T04:24:48.709Z,22.59
2019-04-07T04:25:48.915Z,22.57
2019-04-07T04:26:48.009Z,22.62
2019-04-07T04:27:48.656Z,22.59
2019-04-07T04:28:48.775Z,22.60
2019-04-07T04:29:51.779Z,22.54
2019-04-07T04:30:48.347Z,22.63
2019-04-07T04:31:47.880Z,22.60
2019-04-07T04:32:47.827Z,22.63
2019-04-07T04:33:48.564Z,22.63
2019-04-07T04:34:48.168Z,22.65
2019-04-07T04:35:48.132Z,22.62
2019-04-07T04:36:48.008Z,22.66
2019-04-07T04:37:51.466Z,22.54
2019-04-07T04:38:48.985Z,22.53
2019-04-07T04:39:47.864Z,22.55
2019-04-07T04:40:48.068Z,22.62
2019-04-07T04:41:48.798Z,22.68
2019-04-07T04:42:48.509Z,22.57
2019-04-07T04:43:47.718Z,22.54
2019-04-07T04:44:48.342Z,22.62
2019-04-07T04:45:48.400Z,22.62
2019-04-07T04:46:48.565Z,22.63
2019-04-07T04:47:48.247Z,22.63
2019-04-07T04:48:47.687Z,22.54
2019-04-07T04:49:48.343Z,22.66
2019-04-07T04:50:47.888Z,22.63
2019-04-07T04:51:47.615Z,22.63
2019-04-07T04:52:47.606Z,22.57
2019-04-07T04:53:47.781Z,22.55
2019-04-07T04:54:47.606Z,22.55
2019-04-07T04:55:47.584Z,22.66
2019-04-07T04:56:47.753Z,22.55
2019-04-07T04:57:47.953Z,22.57
2019-04-07T04:58:47.844Z,22.54
2019-04-07T04:59:48.466Z,22.54
2019-04-07T05:00:48.477Z,22.59
2019-04-07T05:01:47.827Z,22.62
2019-04-07T05:02:47.549Z,22.55
2019-04-07T05:03:47.539Z,22.62
2019-04-07T05:04:47.478Z,22.53
2019-04-07T05:05:47.768Z,22.57
2019-04-07T05:06:47.855Z,22.54
2019-04-07T05:07:57.113Z,22.53
2019-04-07T05:08:48.811Z,22.55
2019-04-07T05:09:51.739Z,22.65
2019-04-07T05:10:48.405Z,22.63
2019-04-07T05:11:47.408Z,22.48
2019-04-07T05:12:47.389Z,22.55
2019-04-07T05:13:48.085Z,22.48
2019-04-07T05:14:48.044Z,22.57
2019-04-07T05:15:47.838Z,22.55
2019-04-07T05:16:48.332Z,22.57
2019-04-07T05:17:47.334Z,22.57
2019-04-07T05:18:48.172Z,22.59
2019-04-07T05:19:47.395Z,22.66
2019-04-07T05:20:47.696Z,22.53
2019-04-07T05:21:47.405Z,22.57
2019-04-07T05:22:47.549Z,22.59
2019-04-07T05:23:47.321Z,22.65
2019-04-07T05:24:47.588Z,22.62
2019-04-07T05:25:47.267Z,22.65
2019-04-07T05:26:47.750Z,22.59
2019-04-07T05:27:47.217Z,22.54
2019-04-07T05:28:47.206Z,22.51
2019-04-07T05:29:47.855Z,22.57
2019-04-07T05:30:48.071Z,22.60
2019-04-07T05:31:47.205Z,22.59
2019-04-07T05:32:47.844Z,22.53
2019-04-07T05:33:47.445Z,22.54
2019-04-07T05:34:47.668Z,22.57
2019-04-07T05:35:47.139Z,22.55
2019-04-07T05:36:47.791Z,22.63
2019-04-07T05:37:59.115Z,22.53
2019-04-07T05:38:48.662Z,22.60
2019-04-07T05:39:47.246Z,22.53
2019-04-07T05:40:47.525Z,22.62
2019-04-07T05:41:47.065Z,22.55
2019-04-07T05:42:47.532Z,22.60
2019-04-07T05:43:47.066Z,22.57
2019-04-07T05:44:47.622Z,22.57
2019-04-07T05:45:47.033Z,22.63
2019-04-07T05:46:49.484Z,22.59
2019-04-07T05:47:48.648Z,22.47
2019-04-07T05:48:47.527Z,22.55
2019-04-07T05:49:47.703Z,22.57
2019-04-07T05:50:47.273Z,22.57
2019-04-07T05:51:47.176Z,22.55
2019-04-07T05:52:47.636Z,22.59
2019-04-07T05:53:48.315Z,22.53
2019-04-07T05:54:49.559Z,22.55
2019-04-07T05:55:47.563Z,22.53
2019-04-07T05:56:46.957Z,22.55
2019-04-07T05:57:47.348Z,22.54
2019-04-07T05:58:47.237Z,22.55
2019-04-07T05:59:47.161Z,22.62
2019-04-07T06:00:48.023Z,22.65
2019-04-07T06:01:49.854Z,22.55
2019-04-07T06:02:47.090Z,22.48
2019-04-07T06:03:46.829Z,22.65
2019-04-07T06:04:48.173Z,22.51
2019-04-07T06:05:49.186Z,22.57
2019-04-07T06:06:51.232Z,22.57
2019-04-07T06:07:48.203Z,22.57
2019-04-07T06:08:48.457Z,22.54
2019-04-07T06:09:49.946Z,22.59
2019-04-07T06:10:46.776Z,22.54
2019-04-07T06:11:46.805Z,22.66
2019-04-07T06:12:48.259Z,22.48
2019-04-07T06:13:46.784Z,22.57
2019-04-07T06:14:47.639Z,22.63
2019-04-07T06:15:46.699Z,22.55
2019-04-07T06:16:46.921Z,22.59
2019-04-07T06:17:46.796Z,22.54
2019-04-07T06:18:46.677Z,22.55
2019-04-07T06:19:47.383Z,22.55
2019-04-07T06:20:46.734Z,22.50
2019-04-07T06:21:48.742Z,22.55
2019-04-07T06:22:47.653Z,22.63
2019-04-07T06:23:46.902Z,22.53
2019-04-07T06:24:47.116Z,22.55
2019-04-07T06:25:46.630Z,22.57
2019-04-07T06:26:49.072Z,22.54
2019-04-07T06:27:46.758Z,22.57
2019-04-07T06:28:51.284Z,22.59
2019-04-07T06:29:47.938Z,22.55
2019-04-07T06:30:47.360Z,22.51
2019-04-07T06:31:47.111Z,22.54
2019-04-07T06:32:47.226Z,22.57
2019-04-07T06:33:46.842Z,22.57
2019-04-07T06:34:49.001Z,22.50
2019-04-07T06:35:47.661Z,22.51
2019-04-07T06:36:51.520Z,22.60
2019-04-07T06:37:48.221Z,22.57
2019-04-07T06:38:50.973Z,22.57
2019-04-07T06:39:50.742Z,22.60
2019-04-07T06:40:46.419Z,22.59
2019-04-07T06:41:46.552Z,22.54
2019-04-07T06:42:46.455Z,22.57
2019-04-07T06:43:46.526Z,22.55
2019-04-07T06:44:46.371Z,22.57
2019-04-07T06:45:46.445Z,22.48
2019-04-07T06:46:46.954Z,22.59
2019-04-07T06:47:46.406Z,22.48
2019-04-07T06:48:46.330Z,22.53
2019-04-07T06:49:47.467Z,22.53
2019-04-07T06:50:50.570Z,22.53
2019-04-07T06:51:47.854Z,22.60
2019-04-07T06:52:46.845Z,22.54
2019-04-07T06:53:48.726Z,22.62
2019-04-07T06:54:46.263Z,22.59
2019-04-07T06:55:46.375Z,22.54
2019-04-07T06:56:46.235Z,22.57
2019-04-07T06:57:46.631Z,22.65
2019-04-07T06:58:46.219Z,22.57
2019-04-07T06:59:49.082Z,22.54
2019-04-07T07:00:46.193Z,22.54
2019-04-07T07:01:47.603Z,22.57
2019-04-07T07:02:46.250Z,22.54
2019-04-07T07:03:46.389Z,22.57
2019-04-07T07:04:46.658Z,22.57
2019-04-07T07:05:46.255Z,22.55
2019-04-07T07:06:48.258Z,22.54
2019-04-07T07:07:48.240Z,22.54
2019-04-07T07:08:47.526Z,22.54
2019-04-07T07:09:46.107Z,22.55
2019-04-07T07:10:46.766Z,22.57
2019-04-07T07:11:46.178Z,22.59
2019-04-07T07:12:46.164Z,22.60
2019-04-07T07:13:46.118Z,22.59
2019-04-07T07:14:47.054Z,22.55
2019-04-07T07:15:46.123Z,22.55
2019-04-07T07:16:46.914Z,22.57
2019-04-07T07:17:48.696Z,22.54
2019-04-07T07:18:45.995Z,22.57
2019-04-07T07:19:46.055Z,22.57
2019-04-07T07:20:46.219Z,22.54
2019-04-07T07:21:46.658Z,22.59
2019-04-07T07:22:47.884Z,22.55
2019-04-07T07:23:48.938Z,22.57
2019-04-07T07:24:47.187Z,22.57
2019-04-07T07:25:46.526Z,22.57
2019-04-07T07:26:46.243Z,22.53
2019-04-07T07:27:46.204Z,22.59
2019-04-07T07:28:46.866Z,22.53
2019-04-07T07:29:47.472Z,22.59
2019-04-07T07:30:50.459Z,22.55
2019-04-07T07:31:46.904Z,22.53
2019-04-07T07:32:46.429Z,22.57
2019-04-07T07:33:45.931Z,22.51
2019-04-07T07:34:46.622Z,22.62
2019-04-07T07:35:49.076Z,22.66
2019-04-07T07:36:46.693Z,22.51
2019-04-07T07:37:46.661Z,22.55
2019-04-07T07:38:56.343Z,22.55
2019-04-07T07:39:47.122Z,22.55
2019-04-07T07:40:47.729Z,22.57
2019-04-07T07:41:45.753Z,22.54
2019-04-07T07:42:48.660Z,22.55
2019-04-07T07:43:46.107Z,22.59
2019-04-07T07:44:45.736Z,22.59
2019-04-07T07:45:48.158Z,22.53
2019-04-07T07:46:49.087Z,22.54
2019-04-07T07:47:48.705Z,22.62
2019-04-07T07:48:46.857Z,22.55
2019-04-07T07:49:45.658Z,22.65
2019-04-07T07:50:45.836Z,22.57
2019-04-07T07:51:48.529Z,22.59
2019-04-07T07:52:49.274Z,22.66
2019-04-07T07:53:47.235Z,22.63
2019-04-07T07:54:46.315Z,22.59
2019-04-07T07:55:45.654Z,22.63
2019-04-07T07:56:48.549Z,22.63
2019-04-07T07:57:45.572Z,22.55
2019-04-07T07:58:46.074Z,22.60
2019-04-07T07:59:46.358Z,22.66
2019-04-07T08:00:46.083Z,22.65
2019-04-07T08:01:47.081Z,22.55
2019-04-07T08:02:49.026Z,22.53
2019-04-07T08:03:46.940Z,22.60
2019-04-07T08:04:45.497Z,22.62
2019-04-07T08:05:46.385Z,22.55
2019-04-07T08:06:45.513Z,22.55
2019-04-07T08:07:48.225Z,22.63
2019-04-07T08:08:47.554Z,22.68
2019-04-07T08:09:45.436Z,22.54
2019-04-07T08:10:45.421Z,22.60
2019-04-07T08:11:45.617Z,22.59
2019-04-07T08:12:48.654Z,22.51
2019-04-07T08:13:46.866Z,22.68
2019-04-07T08:14:49.752Z,22.60
2019-04-07T08:15:46.957Z,22.54
2019-04-07T08:16:45.457Z,22.51
2019-04-07T08:17:45.352Z,22.55
2019-04-07T08:18:46.706Z,22.51
2019-04-07T08:19:46.550Z,22.55
2019-04-07T08:20:45.966Z,22.54
2019-04-07T08:21:45.610Z,22.62
2019-04-07T08:22:46.048Z,22.53
2019-04-07T08:23:45.490Z,22.54
2019-04-07T08:24:47.636Z,22.55
2019-04-07T08:25:45.585Z,22.62
2019-04-07T08:26:45.918Z,22.57
2019-04-07T08:27:45.305Z,22.55
2019-04-07T08:28:45.273Z,22.59
2019-04-07T08:29:45.282Z,22.66
2019-04-07T08:30:47.508Z,22.51
2019-04-07T08:31:45.183Z,22.60
2019-04-07T08:32:45.436Z,22.57
2019-04-07T08:33:45.162Z,22.53
2019-04-07T08:34:45.931Z,22.50
2019-04-07T08:35:45.173Z,22.59
2019-04-07T08:36:46.244Z,22.55
2019-04-07T08:37:47.630Z,22.50
2019-04-07T08:38:45.563Z,22.57
2019-04-07T08:39:45.107Z,22.53
2019-04-07T08:40:45.582Z,22.54
2019-04-07T08:41:45.853Z,22.66
2019-04-07T08:42:48.279Z,22.54
2019-04-07T08:43:45.231Z,22.62
2019-04-07T08:44:46.197Z,22.54
2019-04-07T08:45:45.031Z,22.54
2019-04-07T08:46:45.434Z,22.60
2019-04-07T08:47:47.464Z,22.53
2019-04-07T08:48:45.396Z,22.57
2019-04-07T08:49:44.989Z,22.55
2019-04-07T08:50:45.262Z,22.63
2019-04-07T08:51:44.960Z,22.59
2019-04-07T08:52:45.593Z,22.59
2019-04-07T08:53:45.153Z,22.62
2019-04-07T08:54:48.870Z,22.54
2019-04-07T08:55:48.596Z,22.57
2019-04-07T08:56:45.706Z,22.60
2019-04-07T08:57:45.686Z,22.62
2019-04-07T08:58:45.719Z,22.68
2019-04-07T08:59:45.300Z,22.51
2019-04-07T09:00:48.805Z,22.57
2019-04-07T09:01:45.851Z,22.60
2019-04-07T09:02:45.021Z,22.53
2019-04-07T09:03:45.754Z,22.55
2019-04-07T09:04:49.966Z,22.54
2019-04-07T09:05:46.673Z,22.62
2019-04-07T09:06:44.961Z,22.60
2019-04-07T09:07:44.788Z,22.55
2019-04-07T09:08:44.992Z,22.55
2019-04-07T09:09:47.565Z,22.59
2019-04-07T09:10:45.146Z,22.65
2019-04-07T09:11:44.802Z,22.54
2019-04-07T09:12:45.149Z,22.62
2019-04-07T09:13:44.723Z,22.54
2019-04-07T09:14:45.595Z,22.57
2019-04-07T09:15:45.305Z,22.59
2019-04-07T09:16:46.942Z,22.66
2019-04-07T09:17:46.612Z,22.62
2019-04-07T09:18:52.234Z,22.62
2019-04-07T09:19:45.781Z,22.60
2019-04-07T09:20:48.385Z,22.55
2019-04-07T09:21:49.470Z,22.66
2019-04-07T09:22:46.416Z,22.50
2019-04-07T09:23:44.619Z,22.66
2019-04-07T09:24:45.015Z,22.62
2019-04-07T09:25:44.824Z,22.54
2019-04-07T09:26:44.591Z,22.53
2019-04-07T09:27:46.077Z,22.60
2019-04-07T09:28:45.348Z,22.60
2019-04-07T09:29:44.550Z,22.59
2019-04-07T09:30:44.752Z,22.62
2019-04-07T09:31:44.533Z,22.66
2019-04-07T09:32:44.903Z,22.59
2019-04-07T09:33:48.091Z,22.66
2019-04-07T09:34:44.687Z,22.54
2019-04-07T09:35:44.495Z,22.66
2019-04-07T09:36:47.907Z,22.69
2019-04-07T09:37:45.531Z,22.62
2019-04-07T09:38:44.824Z,22.65
2019-04-07T09:39:54.668Z,22.62
2019-04-07T09:40:48.186Z,22.60
2019-04-07T09:41:45.081Z,22.66
2019-04-07T09:42:44.792Z,22.62
2019-04-07T09:43:45.044Z,22.59
2019-04-07T09:44:44.376Z,22.65
2019-04-07T09:45:44.782Z,22.57
2019-04-07T09:46:48.388Z,22.62
2019-04-07T09:47:47.148Z,22.62
2019-04-07T09:48:44.353Z,22.65
2019-04-07T09:49:48.118Z,22.62
2019-04-07T09:50:45.983Z,22.69
2019-04-07T09:51:44.947Z,22.60
2019-04-07T09:52:45.877Z,22.53
2019-04-07T09:53:44.839Z,22.59
2019-04-07T09:54:44.270Z,22.65
2019-04-07T09:55:46.129Z,22.70
2019-04-07T09:56:45.054Z,22.57
2019-04-07T09:57:45.077Z,22.65
2019-04-07T09:58:45.374Z,22.63
2019-04-07T09:59:44.236Z,22.66
2019-04-07T10:00:44.378Z,22.60
2019-04-07T10:01:44.787Z,22.59
2019-04-07T10:02:44.869Z,22.59
2019-04-07T10:03:44.169Z,22.60
2019-04-07T10:04:44.379Z,22.57
2019-04-07T10:05:44.149Z,22.68
2019-04-07T10:06:44.247Z,22.65
2019-04-07T10:07:44.178Z,22.60
2019-04-07T10:08:44.357Z,22.63
2019-04-07T10:09:44.672Z,22.60
2019-04-07T10:10:44.129Z,22.69
2019-04-07T10:11:44.078Z,22.63
2019-04-07T10:12:44.690Z,22.66
2019-04-07T10:13:44.197Z,22.66
2019-04-07T10:14:44.050Z,22.55
2019-04-07T10:15:44.294Z,22.63
2019-04-07T10:16:44.141Z,22.62
2019-04-07T10:17:44.082Z,22.70
2019-04-07T10:18:44.129Z,22.63
2019-04-07T10:19:44.677Z,22.54
2019-04-07T10:20:44.494Z,22.65
2019-04-07T10:21:44.082Z,22.59
2019-04-07T10:22:44.165Z,22.65
2019-04-07T10:23:43.953Z,22.63
2019-04-07T10:24:44.754Z,22.68
2019-04-07T10:25:44.527Z,22.72
2019-04-07T10:26:44.079Z,22.66
2019-04-07T10:27:44.081Z,22.62
2019-04-07T10:28:44.188Z,22.68
2019-04-07T10:29:43.945Z,22.72
2019-04-07T10:30:43.882Z,22.63
2019-04-07T10:31:44.212Z,22.55
2019-04-07T10:32:44.118Z,22.68
2019-04-07T10:33:43.838Z,22.65
2019-04-07T10:34:43.853Z,22.63
2019-04-07T10:35:44.497Z,22.68
2019-04-07T10:36:43.975Z,22.69
2019-04-07T10:37:43.981Z,22.63
2019-04-07T10:38:43.907Z,22.68
2019-04-07T10:39:43.887Z,22.62
2019-04-07T10:40:43.904Z,22.60
2019-04-07T10:41:44.124Z,22.57
2019-04-07T10:42:43.808Z,22.59
2019-04-07T10:43:45.134Z,22.69
2019-04-07T10:44:43.855Z,22.68
2019-04-07T10:45:43.922Z,22.66
2019-04-07T10:46:43.923Z,22.63
2019-04-07T10:47:43.772Z,22.68
2019-04-07T10:48:44.468Z,22.66
2019-04-07T10:49:44.322Z,22.63
2019-04-07T10:50:43.817Z,22.63
2019-04-07T10:51:44.289Z,22.65
2019-04-07T10:52:43.820Z,22.62
2019-04-07T10:53:43.641Z,22.69
2019-04-07T10:54:43.849Z,22.62
2019-04-07T10:55:44.142Z,22.70
2019-04-07T10:56:43.872Z,22.70
2019-04-07T10:57:43.668Z,22.68
2019-04-07T10:58:43.667Z,22.68
2019-04-07T10:59:44.259Z,22.70
2019-04-07T11:00:46.325Z,22.63
2019-04-07T11:01:44.527Z,22.70
2019-04-07T11:02:44.297Z,22.62
2019-04-07T11:03:44.396Z,22.60
2019-04-07T11:04:44.020Z,22.62
2019-04-07T11:05:43.489Z,22.62
2019-04-07T11:06:43.959Z,22.66
2019-04-07T11:07:43.870Z,22.63
2019-04-07T11:08:43.632Z,22.70
2019-04-07T11:09:43.930Z,22.63
2019-04-07T11:10:44.189Z,22.68
2019-04-07T11:11:43.816Z,22.65
2019-04-07T11:12:43.493Z,22.66
2019-04-07T11:13:43.403Z,22.68
2019-04-07T11:14:43.393Z,22.66
2019-04-07T11:15:44.349Z,22.65
2019-04-07T11:16:44.156Z,22.65
2019-04-07T11:17:43.680Z,22.63
2019-04-07T11:18:43.918Z,22.68
2019-04-07T11:19:43.591Z,22.60
2019-04-07T11:20:43.408Z,22.68
2019-04-07T11:21:43.326Z,22.66
2019-04-07T11:22:44.283Z,22.65
2019-04-07T11:23:43.520Z,22.65
2019-04-07T11:24:43.456Z,22.68
2019-04-07T11:25:43.915Z,22.57
2019-04-07T11:26:43.254Z,22.66
2019-04-07T11:27:43.839Z,22.69
2019-04-07T11:28:43.572Z,22.63
2019-04-07T11:29:43.683Z,22.68
2019-04-07T11:30:43.748Z,22.70
2019-04-07T11:31:43.922Z,22.68
2019-04-07T11:32:43.453Z,22.65
2019-04-07T11:33:43.817Z,22.65
2019-04-07T11:34:43.276Z,22.59
2019-04-07T11:35:43.330Z,22.62
2019-04-07T11:36:43.280Z,22.62
2019-04-07T11:37:44.111Z,22.62
2019-04-07T11:38:43.124Z,22.68
2019-04-07T11:39:43.567Z,22.66
2019-04-07T11:40:49.006Z,22.70
2019-04-07T11:41:44.093Z,22.68
2019-04-07T11:42:43.082Z,22.68
2019-04-07T11:43:43.072Z,22.66
2019-04-07T11:44:43.160Z,22.65
2019-04-07T11:45:54.182Z,22.68
2019-04-07T11:46:44.250Z,22.70
2019-04-07T11:47:43.033Z,22.65
2019-04-07T11:48:51.516Z,22.73
2019-04-07T11:49:44.720Z,22.62
2019-04-07T11:50:50.637Z,22.60
2019-04-07T11:51:50.137Z,22.60
2019-04-07T11:52:51.603Z,22.65
2019-04-07T11:53:51.277Z,22.68
2019-04-07T11:54:51.150Z,22.63
2019-04-07T11:55:51.986Z,22.63
2019-04-07T11:56:50.819Z,22.65
2019-04-07T11:57:45.119Z,22.65
2019-04-07T11:58:43.076Z,22.66
2019-04-07T11:59:43.676Z,22.69
2019-04-07T12:00:42.901Z,22.63
2019-04-07T12:01:46.088Z,22.75
2019-04-07T12:02:44.667Z,22.68
2019-04-07T12:03:42.958Z,22.62
2019-04-07T12:04:43.631Z,22.68
2019-04-07T12:05:42.823Z,22.72
2019-04-07T12:06:46.567Z,22.69
2019-04-07T12:07:44.584Z,22.70
2019-04-07T12:08:42.815Z,22.66
2019-04-07T12:09:43.121Z,22.72
2019-04-07T12:10:54.595Z,22.60
2019-04-07T12:11:43.763Z,22.75
2019-04-07T12:12:42.748Z,22.73
2019-04-07T12:13:44.612Z,22.73
2019-04-07T12:14:43.079Z,22.72
2019-04-07T12:15:43.006Z,22.69
2019-04-07T12:16:42.715Z,22.70
2019-04-07T12:17:43.545Z,22.72
2019-04-07T12:18:42.699Z,22.72
2019-04-07T12:19:43.003Z,22.63
2019-04-07T12:20:42.722Z,22.73
2019-04-07T12:21:42.649Z,22.70
2019-04-07T12:22:45.410Z,22.70
2019-04-07T12:23:43.333Z,22.72
2019-04-07T12:24:43.405Z,22.72
2019-04-07T12:25:42.918Z,22.70
2019-04-07T12:26:43.746Z,22.68
2019-04-07T12:27:44.638Z,22.72
2019-04-07T12:28:42.606Z,22.62
2019-04-07T12:29:42.873Z,22.70
2019-04-07T12:30:42.671Z,22.66
2019-04-07T12:31:43.309Z,22.75
2019-04-07T12:32:43.419Z,22.72
2019-04-07T12:33:43.219Z,22.70
2019-04-07T12:34:45.846Z,22.78
2019-04-07T12:35:42.962Z,22.76
2019-04-07T12:36:43.016Z,22.73
2019-04-07T12:37:43.732Z,22.66
2019-04-07T12:38:44.721Z,22.70
2019-04-07T12:39:42.455Z,22.75
2019-04-07T12:40:43.113Z,22.68
2019-04-07T12:41:42.607Z,22.70
2019-04-07T12:42:42.946Z,22.73
2019-04-07T12:43:42.798Z,22.72
2019-04-07T12:44:42.425Z,22.73
2019-04-07T12:45:42.759Z,22.75
2019-04-07T12:46:42.368Z,22.75
2019-04-07T12:47:43.041Z,22.68
2019-04-07T12:48:42.388Z,22.78
2019-04-07T12:49:45.524Z,22.73
2019-04-07T12:50:42.655Z,22.75
2019-04-07T12:51:43.013Z,22.68
2019-04-07T12:52:42.307Z,22.73